Khanewal Weather



Khanewal's Current Weather

Temprature 43.562o clear sky

clear sky

Rain: 0 %

Min Temprature43.562o
Max Temprature43.562o
Humidity17
Wind Speed1.54 m/h
Sun Rise05:12:04
Sun Set19:17:47
Current Time: 26-Jun-2019 15:15:26
Lat/Lon: 30.3, 71.93




Khanewal's Geo Location



Khanewal's Weather Forecast

Time Overall Temp Min Temp Max Temp Humidity Wind Speed Rain
26-Jun-2019 (Wed)
17:00:00 clear sky 44.250 44.250 44.250 13 6.02 m/h 0 %
20:00:00 clear sky 40.850 40.847 40.850 18 6.65 m/h 0 %
23:00:00 clear sky 38.840 38.840 38.840 23 3.24 m/h 0 %
27-Jun-2019 (Thu)
02:00:00 clear sky 37.280 37.279 37.280 25 3.48 m/h 0 %
05:00:00 clear sky 36.065 36.065 36.065 27 4.56 m/h 0 %
08:00:00 clear sky 38.650 38.650 38.650 29 7.08 m/h 0 %
11:00:00 clear sky 43.274 43.274 43.274 20 6.05 m/h 0 %
14:00:00 clear sky 45.950 45.950 45.950 12 3.64 m/h 0 %
17:00:00 light rain 37.580 37.580 37.580 25 7.02 m/h 13 %
20:00:00 scattered clouds 39.094 39.094 39.094 21 8.63 m/h 0 %
23:00:00 few clouds 38.535 38.535 38.535 22 6.69 m/h 0 %
28-Jun-2019 (Fri)
02:00:00 few clouds 37.428 37.428 37.428 27 8 m/h 0 %
05:00:00 clear sky 34.828 34.828 34.828 40 6.63 m/h 0 %
08:00:00 clear sky 35.849 35.849 35.849 38 7.2 m/h 0 %
11:00:00 clear sky 41.325 41.325 41.325 24 5.57 m/h 0 %
14:00:00 clear sky 45.231 45.231 45.231 15 5.37 m/h 0 %
17:00:00 clear sky 45.950 45.950 45.950 12 4.7 m/h 0 %
20:00:00 clear sky 42.850 42.850 42.850 16 6.66 m/h 0 %
23:00:00 clear sky 40.372 40.372 40.372 20 6.73 m/h 0 %
29-Jun-2019 (Sat)
02:00:00 clear sky 38.172 38.172 38.172 25 8.52 m/h 0 %
05:00:00 clear sky 34.729 34.729 34.729 42 9.72 m/h 0 %
08:00:00 clear sky 35.107 35.107 35.107 41 9.05 m/h 0 %
11:00:00 clear sky 42.050 42.050 42.050 24 8.57 m/h 0 %
14:00:00 clear sky 46.050 46.050 46.050 14 6.98 m/h 0 %
17:00:00 clear sky 46.591 46.591 46.591 10 6.76 m/h 0 %
20:00:00 clear sky 42.850 42.850 42.850 14 7.5 m/h 0 %
23:00:00 clear sky 40.450 40.450 40.450 18 7.03 m/h 0 %
30-Jun-2019 (Sun)
02:00:00 clear sky 38.326 38.326 38.326 23 7.88 m/h 0 %
05:00:00 clear sky 34.862 34.862 34.862 45 10.08 m/h 0 %
08:00:00 clear sky 35.612 35.612 35.612 43 10.4 m/h 0 %
11:00:00 clear sky 41.718 41.718 41.718 25 9.52 m/h 0 %
14:00:00 clear sky 46.009 46.009 46.009 15 6.38 m/h 0 %
17:00:00 clear sky 46.950 46.950 46.950 11 6.05 m/h 0 %
20:00:00 clear sky 43.450 43.450 43.450 14 6.3 m/h 0 %
23:00:00 clear sky 40.950 40.950 40.950 18 7.99 m/h 0 %
01-Jul-2019 (Mon)
02:00:00 clear sky 38.850 38.850 38.850 23 8.55 m/h 0 %
05:00:00 clear sky 35.135 35.135 35.135 45 10.3 m/h 0 %
08:00:00 clear sky 35.450 35.450 35.450 45 10.59 m/h 0 %
11:00:00 clear sky 42.850 42.850 42.850 24 9.25 m/h 0 %
14:00:00 clear sky 47.250 47.250 47.250 12 7.21 m/h 0 %

Famous Cities (60)